createdAt,value
2018-05-26T00:01:51.170Z,42.03
2018-05-26T00:04:19.542Z,42.08
2018-05-26T00:06:47.897Z,42.20
2018-05-26T00:09:16.283Z,42.33
2018-05-26T00:11:45.391Z,42.36
2018-05-26T00:14:14.533Z,42.50
2018-05-26T00:16:42.934Z,42.46
2018-05-26T00:19:11.314Z,42.42
2018-05-26T00:21:39.725Z,42.48
2018-05-26T00:24:08.873Z,42.60
2018-05-26T00:26:37.288Z,42.66
2018-05-26T00:29:06.416Z,42.57
2018-05-26T00:31:34.786Z,42.60
2018-05-26T00:34:03.163Z,42.84
2018-05-26T00:36:31.590Z,42.90
2018-05-26T00:39:00.753Z,42.83
2018-05-26T00:41:29.138Z,42.88
2018-05-26T00:43:57.514Z,42.95
2018-05-26T00:46:25.956Z,42.99
2018-05-26T00:48:55.087Z,42.99
2018-05-26T00:51:23.450Z,42.88
2018-05-26T00:53:51.831Z,43.00
2018-05-26T00:56:20.317Z,43.03
2018-05-26T00:58:48.684Z,42.99
2018-05-26T01:01:17.089Z,43.29
2018-05-26T01:03:45.423Z,43.34
2018-05-26T01:06:14.576Z,43.33
2018-05-26T01:08:43.002Z,43.48
2018-05-26T01:11:11.392Z,43.59
2018-05-26T01:13:39.759Z,43.53
2018-05-26T01:16:08.857Z,43.53
2018-05-26T01:18:37.972Z,43.62
2018-05-26T01:21:06.332Z,43.61
2018-05-26T01:23:35.437Z,43.57
2018-05-26T01:26:04.540Z,43.59
2018-05-26T01:28:32.904Z,43.88
2018-05-26T01:31:02.050Z,44.66
2018-05-26T01:33:30.449Z,45.14
2018-05-26T01:35:59.558Z,45.46
2018-05-26T01:38:27.958Z,45.86
2018-05-26T01:40:57.168Z,45.95
2018-05-26T01:43:25.550Z,45.91
2018-05-26T01:45:53.920Z,46.90
2018-05-26T01:48:22.284Z,47.11
2018-05-26T01:50:51.472Z,47.35
2018-05-26T01:53:19.880Z,47.17
2018-05-26T01:55:48.223Z,47.04
2018-05-26T01:58:16.592Z,46.64
2018-05-26T02:00:45.017Z,46.65
2018-05-26T02:03:13.397Z,47.35
2018-05-26T02:05:41.868Z,47.64
2018-05-26T02:08:10.256Z,47.52
2018-05-26T02:10:38.595Z,47.72
2018-05-26T02:13:06.971Z,47.82
2018-05-26T02:15:35.393Z,47.86
2018-05-26T02:18:03.817Z,47.84
2018-05-26T02:20:32.254Z,46.92
2018-05-26T02:23:00.625Z,47.61
2018-05-26T02:25:28.990Z,48.27
2018-05-26T02:27:58.226Z,48.71
2018-05-26T02:30:26.676Z,48.86
2018-05-26T02:32:55.902Z,48.91
2018-05-26T02:35:24.432Z,48.28
2018-05-26T02:37:53.569Z,48.63
2018-05-26T02:40:22.030Z,48.73
2018-05-26T02:42:51.218Z,49.47
2018-05-26T02:45:20.335Z,49.91
2018-05-26T02:47:48.705Z,49.62
2018-05-26T02:50:17.091Z,49.98
2018-05-26T02:52:45.465Z,50.15
2018-05-26T02:55:13.835Z,49.76
2018-05-26T02:57:42.970Z,49.73
2018-05-26T03:00:11.336Z,50.01
2018-05-26T03:02:39.710Z,50.28
2018-05-26T03:05:13.706Z,50.61
2018-05-26T03:07:47.740Z,50.48
2018-05-26T03:10:21.667Z,50.50
2018-05-26T03:12:55.732Z,50.35
2018-05-26T03:15:24.204Z,50.74
2018-05-26T03:17:53.634Z,50.74
2018-05-26T03:20:22.086Z,50.74
2018-05-26T03:22:51.227Z,50.86
2018-05-26T03:25:19.592Z,50.95
2018-05-26T03:27:47.952Z,50.96
2018-05-26T03:30:16.288Z,50.89
2018-05-26T03:32:44.733Z,50.50
2018-05-26T03:35:13.115Z,50.55
2018-05-26T03:37:41.472Z,50.50
2018-05-26T03:40:09.942Z,50.33
2018-05-26T03:42:39.043Z,50.23
2018-05-26T03:45:08.178Z,49.76
2018-05-26T03:47:36.612Z,49.60
2018-05-26T03:50:05.796Z,49.12
2018-05-26T03:52:34.180Z,49.14
2018-05-26T03:55:38.801Z,48.93
2018-05-26T03:58:25.747Z,49.14
2018-05-26T04:00:54.112Z,48.92
2018-05-26T04:03:22.461Z,49.16
2018-05-26T04:05:52.031Z,48.98
2018-05-26T04:08:21.115Z,48.01
2018-05-26T04:10:49.486Z,47.47
2018-05-26T04:13:17.865Z,47.14
2018-05-26T04:15:46.218Z,47.07
2018-05-26T04:18:15.442Z,47.09
2018-05-26T04:20:43.825Z,46.98
2018-05-26T04:23:12.263Z,46.83
2018-05-26T04:25:40.616Z,46.55
2018-05-26T04:28:09.098Z,46.63
2018-05-26T04:30:37.450Z,46.48
2018-05-26T04:33:05.932Z,46.31
2018-05-26T04:35:34.285Z,46.50
2018-05-26T04:38:02.774Z,45.95
2018-05-26T04:40:31.144Z,46.70
2018-05-26T04:42:59.509Z,47.71
2018-05-26T04:45:28.027Z,48.17
2018-05-26T04:47:56.402Z,47.96
2018-05-26T04:50:24.773Z,47.43
2018-05-26T04:52:53.125Z,46.08
2018-05-26T04:55:22.228Z,45.66
2018-05-26T04:57:50.733Z,45.56
2018-05-26T05:00:19.130Z,45.63
2018-05-26T05:02:47.500Z,45.59
2018-05-26T05:05:15.935Z,45.50
2018-05-26T05:07:44.289Z,44.92
2018-05-26T05:10:12.656Z,45.61
2018-05-26T05:12:41.093Z,45.27
2018-05-26T05:15:09.431Z,45.38
2018-05-26T05:17:37.827Z,44.66
2018-05-26T05:20:06.952Z,44.53
2018-05-26T05:22:35.311Z,44.67
2018-05-26T05:25:04.459Z,44.42
2018-05-26T05:27:32.833Z,44.22
2018-05-26T05:30:01.211Z,43.74
2018-05-26T05:32:29.591Z,43.64
2018-05-26T05:34:58.037Z,43.31
2018-05-26T05:37:26.465Z,42.73
2018-05-26T05:39:54.828Z,42.83
2018-05-26T05:42:23.237Z,42.72
2018-05-26T05:44:51.618Z,36.62
2018-05-26T05:47:20.750Z,31.00
2018-05-26T05:49:49.171Z,30.23
2018-05-26T05:52:17.548Z,28.34
2018-05-26T05:54:45.891Z,27.04
2018-05-26T05:57:14.254Z,25.12
2018-05-26T05:59:43.410Z,25.56
2018-05-26T06:02:11.907Z,24.71
2018-05-26T06:04:40.342Z,24.63
2018-05-26T06:07:08.721Z,24.12
2018-05-26T06:09:37.535Z,25.06
2018-05-26T06:12:05.881Z,24.64
2018-05-26T06:14:34.300Z,23.64
2018-05-26T06:17:02.685Z,22.88
2018-05-26T06:19:31.841Z,23.54
2018-05-26T06:22:00.220Z,22.26
2018-05-26T06:24:28.561Z,22.63
2018-05-26T06:26:57.768Z,22.92
2018-05-26T06:29:26.111Z,23.64
2018-05-26T06:31:54.482Z,24.54
2018-05-26T06:34:22.877Z,24.71
2018-05-26T06:36:52.045Z,24.72
2018-05-26T06:39:20.476Z,25.01
2018-05-26T06:41:48.839Z,24.41
2018-05-26T06:44:18.033Z,28.12
2018-05-26T06:46:46.391Z,30.43
2018-05-26T06:49:14.960Z,31.98
2018-05-26T06:51:43.388Z,33.86
2018-05-26T06:54:12.081Z,34.75
2018-05-26T06:56:40.487Z,34.87
2018-05-26T06:59:08.842Z,36.18
2018-05-26T07:01:37.209Z,36.58
2018-05-26T07:04:06.450Z,35.68
2018-05-26T07:06:34.900Z,36.42
2018-05-26T07:09:03.231Z,36.15
2018-05-26T07:11:31.646Z,36.25
2018-05-26T07:13:59.992Z,35.99
2018-05-26T07:16:28.357Z,36.46
2018-05-26T07:18:56.792Z,36.65
2018-05-26T07:21:25.171Z,37.82
2018-05-26T07:23:53.536Z,38.10
2018-05-26T07:26:22.721Z,37.08
2018-05-26T07:28:51.836Z,36.97
2018-05-26T07:31:20.229Z,37.50
2018-05-26T07:33:48.624Z,37.32
2018-05-26T07:36:16.978Z,36.99
2018-05-26T07:38:45.473Z,36.57
2018-05-26T07:41:13.945Z,36.66
2018-05-26T07:43:42.372Z,36.40
2018-05-26T07:46:10.751Z,36.95
2018-05-26T07:48:40.668Z,37.18
2018-05-26T07:51:09.058Z,37.12
2018-05-26T07:53:37.432Z,36.68
2018-05-26T07:56:05.775Z,36.63
2018-05-26T07:58:34.235Z,35.67
2018-05-26T08:01:02.579Z,36.35
2018-05-26T08:03:31.712Z,36.28
2018-05-26T08:06:00.083Z,35.92
2018-05-26T08:08:28.430Z,35.63
2018-05-26T08:10:56.828Z,35.51
2018-05-26T08:13:26.016Z,35.67
2018-05-26T08:15:55.140Z,35.61
2018-05-26T08:18:23.620Z,35.00
2018-05-26T08:20:52.002Z,35.11
2018-05-26T08:23:20.364Z,35.33
2018-05-26T08:25:48.768Z,35.04
2018-05-26T08:28:17.161Z,35.20
2018-05-26T08:30:45.537Z,34.51
2018-05-26T08:33:13.960Z,34.45
2018-05-26T08:35:43.092Z,34.51
2018-05-26T08:38:11.465Z,34.12
2018-05-26T08:40:39.858Z,33.42
2018-05-26T08:43:08.210Z,33.48
2018-05-26T08:45:37.355Z,31.15
2018-05-26T08:48:05.730Z,27.56
2018-05-26T08:50:34.116Z,26.19
2018-05-26T08:53:02.513Z,24.41
2018-05-26T08:55:30.914Z,24.32
2018-05-26T08:58:00.133Z,24.02
2018-05-26T09:00:28.547Z,22.37
2018-05-26T09:02:56.932Z,21.50
2018-05-26T09:05:25.269Z,23.08
2018-05-26T09:07:53.651Z,23.20
2018-05-26T09:10:21.979Z,23.00
2018-05-26T09:12:50.341Z,22.09
2018-05-26T09:15:18.724Z,20.99
2018-05-26T09:17:47.104Z,21.60
2018-05-26T09:20:15.495Z,22.23
2018-05-26T09:22:43.878Z,22.39
2018-05-26T09:25:12.260Z,21.58
2018-05-26T09:27:41.426Z,21.33
2018-05-26T09:30:09.815Z,21.68
2018-05-26T09:32:38.222Z,22.10
2018-05-26T09:35:07.379Z,22.12
2018-05-26T09:37:35.731Z,21.88
2018-05-26T09:40:04.127Z,21.50
2018-05-26T09:42:32.472Z,21.77
2018-05-26T09:45:00.811Z,21.01
2018-05-26T09:47:29.152Z,21.66
2018-05-26T09:49:57.546Z,21.49
2018-05-26T09:52:25.954Z,21.78
2018-05-26T09:54:54.293Z,21.01
2018-05-26T09:57:22.666Z,20.21
2018-05-26T09:59:51.054Z,21.47
2018-05-26T10:02:19.473Z,21.67
2018-05-26T10:04:48.621Z,21.50
2018-05-26T10:07:16.988Z,22.15
2018-05-26T10:09:45.343Z,22.20
2018-05-26T10:12:14.443Z,21.75
2018-05-26T10:14:43.563Z,22.51
2018-05-26T10:17:11.906Z,23.08
2018-05-26T10:19:41.087Z,22.83
2018-05-26T10:22:09.456Z,23.39
2018-05-26T10:24:37.820Z,25.07
2018-05-26T10:27:06.183Z,25.78
2018-05-26T10:29:34.532Z,26.59
2018-05-26T10:32:02.911Z,28.01
2018-05-26T10:34:31.261Z,28.15
2018-05-26T10:36:59.646Z,28.18
2018-05-26T10:39:28.803Z,28.33
2018-05-26T10:41:57.195Z,27.33
2018-05-26T10:44:25.530Z,27.68
2018-05-26T10:46:53.926Z,27.56
2018-05-26T10:49:22.281Z,27.79
2018-05-26T10:51:50.628Z,27.11
2018-05-26T10:54:19.791Z,27.19
2018-05-26T10:56:48.153Z,27.15
2018-05-26T10:59:16.549Z,27.66
2018-05-26T11:01:44.931Z,27.19
2018-05-26T11:04:13.283Z,27.25
2018-05-26T11:06:47.727Z,26.93
2018-05-26T11:09:16.107Z,26.28
2018-05-26T11:11:44.495Z,26.83
2018-05-26T11:14:12.875Z,26.09
2018-05-26T11:16:41.267Z,25.78
2018-05-26T11:19:09.671Z,26.32
2018-05-26T11:21:38.811Z,26.44
2018-05-26T11:24:07.338Z,25.39
2018-05-26T11:26:35.655Z,25.66
2018-05-26T11:29:03.990Z,25.50
2018-05-26T11:31:32.360Z,25.33
2018-05-26T11:34:00.763Z,25.50
2018-05-26T11:36:29.948Z,26.13
2018-05-26T11:38:59.171Z,26.71
2018-05-26T11:41:27.629Z,27.25
2018-05-26T11:43:56.817Z,27.97
2018-05-26T11:46:26.030Z,28.13
2018-05-26T11:48:55.168Z,28.53
2018-05-26T11:51:23.628Z,28.00
2018-05-26T11:53:52.018Z,26.81
2018-05-26T11:56:20.493Z,26.42
2018-05-26T11:58:48.892Z,25.96
2018-05-26T12:01:17.292Z,25.80
2018-05-26T12:03:45.677Z,25.50
2018-05-26T12:06:14.108Z,26.23
2018-05-26T12:08:42.475Z,27.23
2018-05-26T12:11:10.968Z,27.27
2018-05-26T12:13:39.457Z,26.05
2018-05-26T12:16:07.922Z,25.70
2018-05-26T12:18:36.284Z,25.51
2018-05-26T12:21:05.469Z,25.41
2018-05-26T12:23:34.676Z,25.00
2018-05-26T12:26:03.774Z,24.32
2018-05-26T12:28:32.919Z,24.64
2018-05-26T12:31:01.300Z,24.36
2018-05-26T12:33:29.747Z,24.29
2018-05-26T12:35:58.141Z,24.31
2018-05-26T12:38:26.537Z,24.07
2018-05-26T12:40:55.006Z,23.99
2018-05-26T12:43:23.539Z,23.73
2018-05-26T12:45:52.687Z,23.47
2018-05-26T12:48:21.075Z,23.51
2018-05-26T12:50:49.447Z,23.55
2018-05-26T12:53:17.817Z,23.18
2018-05-26T12:55:46.195Z,24.35
2018-05-26T13:01:24.424Z,25.04
2018-05-26T13:03:52.756Z,25.72
2018-05-26T13:06:21.134Z,26.36
2018-05-26T13:08:49.529Z,26.54
2018-05-26T13:11:18.670Z,27.42
2018-05-26T13:13:47.073Z,26.53
2018-05-26T13:16:15.514Z,26.34
2018-05-26T13:18:43.981Z,25.87
2018-05-26T13:21:12.381Z,24.34
2018-05-26T13:23:40.728Z,24.25
2018-05-26T13:26:09.139Z,24.06
2018-05-26T13:28:37.518Z,25.29
2018-05-26T13:31:05.875Z,25.00
2018-05-26T13:33:34.244Z,24.04
2018-05-26T13:36:02.658Z,23.40
2018-05-26T13:38:31.012Z,23.30
2018-05-26T13:40:59.360Z,22.61
2018-05-26T13:43:28.596Z,22.66
2018-05-26T13:45:56.939Z,22.39
2018-05-26T13:48:26.106Z,22.92
2018-05-26T13:50:54.500Z,22.95
2018-05-26T13:56:20.758Z,21.81
2018-05-26T13:58:49.905Z,22.31
2018-05-26T14:01:18.293Z,22.44
2018-05-26T14:03:46.654Z,23.27
2018-05-26T14:06:15.026Z,22.28
2018-05-26T14:08:43.400Z,22.19
2018-05-26T14:11:11.756Z,22.63
2018-05-26T14:13:40.939Z,22.88
2018-05-26T14:16:09.344Z,22.86
2018-05-26T14:18:37.731Z,22.10
2018-05-26T14:21:06.127Z,22.10
2018-05-26T14:23:34.517Z,21.38
2018-05-26T14:26:02.968Z,22.05
2018-05-26T14:28:31.316Z,23.02
2018-05-26T14:30:59.688Z,22.86
2018-05-26T14:33:28.350Z,22.51
2018-05-26T14:35:56.719Z,22.92
2018-05-26T14:38:25.112Z,23.43
2018-05-26T14:40:53.528Z,22.52
2018-05-26T14:43:22.658Z,22.11
2018-05-26T14:45:51.128Z,22.12
2018-05-26T14:48:19.512Z,22.10
2018-05-26T14:50:47.992Z,21.89
2018-05-26T14:53:16.378Z,22.67
2018-05-26T14:55:44.776Z,22.44
2018-05-26T14:58:13.146Z,22.42
2018-05-26T15:00:41.504Z,21.93
2018-05-26T15:03:09.888Z,22.73
2018-05-26T15:05:38.693Z,23.13
2018-05-26T15:08:07.833Z,23.58
2018-05-26T15:10:36.997Z,23.37
2018-05-26T15:13:05.538Z,22.90
2018-05-26T15:15:33.789Z,22.95
2018-05-26T15:18:02.917Z,23.20
2018-05-26T15:20:31.296Z,23.53
2018-05-26T15:22:59.639Z,22.98
2018-05-26T15:25:28.727Z,22.83
2018-05-26T15:27:57.079Z,23.56
2018-05-26T15:33:22.376Z,24.72
2018-05-26T15:35:50.734Z,25.13
2018-05-26T15:38:19.112Z,24.62
2018-05-26T15:40:47.511Z,24.21
2018-05-26T15:43:15.893Z,24.12
2018-05-26T15:45:44.340Z,24.13
2018-05-26T15:48:13.472Z,24.65
2018-05-26T15:50:41.816Z,25.17
2018-05-26T15:53:11.042Z,24.38
2018-05-26T15:55:39.542Z,25.24
2018-05-26T15:58:07.931Z,25.45
2018-05-26T16:00:36.344Z,24.25
2018-05-26T16:03:04.684Z,24.36
2018-05-26T16:05:33.044Z,24.46
2018-05-26T16:08:01.393Z,24.27
2018-05-26T16:10:29.793Z,24.50
2018-05-26T16:12:58.182Z,24.46
2018-05-26T16:15:26.545Z,24.67
2018-05-26T16:17:54.888Z,24.60
2018-05-26T16:20:24.122Z,25.04
2018-05-26T16:22:52.476Z,25.22
2018-05-26T16:25:21.609Z,25.62
2018-05-26T16:27:50.017Z,25.29
2018-05-26T16:30:18.448Z,24.96
2018-05-26T16:32:46.817Z,25.39
2018-05-26T16:35:15.976Z,26.48
2018-05-26T16:37:44.344Z,26.08
2018-05-26T16:40:12.824Z,26.07
2018-05-26T16:42:41.226Z,26.26
2018-05-26T16:45:09.574Z,26.86
2018-05-26T16:47:37.951Z,26.62
2018-05-26T16:50:06.344Z,25.93
2018-05-26T16:52:34.749Z,25.90
2018-05-26T16:55:03.144Z,26.00
2018-05-26T16:57:31.504Z,26.33
2018-05-26T16:59:59.968Z,26.31
2018-05-26T17:02:28.344Z,26.05
2018-05-26T17:04:56.718Z,26.17
2018-05-26T17:07:25.088Z,26.02
2018-05-26T17:09:53.541Z,25.80
2018-05-26T17:12:21.916Z,25.95
2018-05-26T17:14:50.249Z,26.25
2018-05-26T17:17:18.686Z,26.05
2018-05-26T17:19:47.125Z,26.12
2018-05-26T17:22:16.273Z,26.17
2018-05-26T17:24:44.606Z,25.72
2018-05-26T17:27:13.757Z,26.22
2018-05-26T17:29:42.147Z,26.04
2018-05-26T17:32:10.590Z,26.11
2018-05-26T17:34:38.973Z,26.59
2018-05-26T17:37:07.311Z,26.37
2018-05-26T17:39:36.511Z,26.46
2018-05-26T17:42:05.647Z,27.02
2018-05-26T17:44:34.091Z,26.59
2018-05-26T17:47:03.212Z,26.99
2018-05-26T17:49:31.614Z,27.16
2018-05-26T17:51:59.957Z,27.25
2018-05-26T17:54:28.297Z,27.65
2018-05-26T17:56:56.651Z,27.76
2018-05-26T17:59:25.039Z,27.84
2018-05-26T18:01:53.457Z,28.19
2018-05-26T18:04:22.571Z,27.41
2018-05-26T18:06:50.962Z,27.74
2018-05-26T18:09:19.317Z,27.81
2018-05-26T18:11:48.458Z,27.47
2018-05-26T18:14:16.831Z,27.65
2018-05-26T18:16:45.215Z,27.85
2018-05-26T18:19:13.611Z,27.61
2018-05-26T18:21:41.953Z,27.63
2018-05-26T18:24:10.333Z,27.77
2018-05-26T18:26:38.712Z,27.82
2018-05-26T18:29:07.068Z,27.96
2018-05-26T18:31:35.403Z,27.94
2018-05-26T18:34:03.804Z,27.74
2018-05-26T18:36:32.948Z,28.22
2018-05-26T18:39:01.432Z,29.08
2018-05-26T18:41:29.772Z,30.13
2018-05-26T18:43:58.965Z,31.26
2018-05-26T18:46:28.183Z,31.58
2018-05-26T18:48:56.544Z,32.42
2018-05-26T18:51:25.709Z,33.00
2018-05-26T18:53:54.145Z,33.28
2018-05-26T18:56:22.554Z,33.74
2018-05-26T18:58:50.938Z,34.05
2018-05-26T19:01:19.385Z,34.45
2018-05-26T19:03:47.740Z,34.72
2018-05-26T19:06:16.969Z,34.93
2018-05-26T19:08:45.320Z,35.24
2018-05-26T19:11:13.814Z,35.55
2018-05-26T19:13:42.170Z,35.80
2018-05-26T19:16:11.328Z,35.97
2018-05-26T19:18:39.772Z,36.23
2018-05-26T19:21:08.187Z,36.38
2018-05-26T19:23:36.616Z,36.73
2018-05-26T19:26:04.980Z,36.90
2018-05-26T19:28:34.204Z,36.98
2018-05-26T19:31:02.656Z,37.27
2018-05-26T19:33:31.761Z,37.30
2018-05-26T19:36:00.904Z,37.41
2018-05-26T19:38:29.268Z,37.51
2018-05-26T19:40:57.653Z,37.72
2018-05-26T19:43:26.105Z,37.92
2018-05-26T19:45:54.560Z,38.25
2018-05-26T19:48:23.681Z,38.35
2018-05-26T19:50:52.061Z,38.44
2018-05-26T19:53:20.445Z,38.68
2018-05-26T19:55:48.840Z,38.83
2018-05-26T19:58:17.245Z,38.98
2018-05-26T20:00:45.642Z,39.08
2018-05-26T20:03:14.022Z,39.22
2018-05-26T20:05:42.399Z,39.36
2018-05-26T20:08:10.764Z,39.61
2018-05-26T20:10:39.137Z,39.77
2018-05-26T20:13:07.572Z,39.98
2018-05-26T20:15:36.033Z,40.28
2018-05-26T20:18:05.183Z,40.39
2018-05-26T20:20:33.558Z,40.61
2018-05-26T20:23:01.970Z,40.79
2018-05-26T20:25:30.369Z,40.89
2018-05-26T20:27:59.540Z,41.02
2018-05-26T20:30:27.884Z,41.14
2018-05-26T20:32:56.320Z,41.33
2018-05-26T20:35:25.512Z,41.55
2018-05-26T20:37:53.877Z,41.62
2018-05-26T20:40:22.238Z,41.80
2018-05-26T20:42:50.629Z,42.00
2018-05-26T20:45:18.973Z,41.96
2018-05-26T20:47:47.352Z,42.32
2018-05-26T20:50:15.687Z,42.41
2018-05-26T20:52:44.803Z,42.53
2018-05-26T20:55:13.167Z,42.65
2018-05-26T20:57:41.549Z,42.75
2018-05-26T21:00:09.916Z,42.77
2018-05-26T21:02:39.078Z,42.89
2018-05-26T21:05:07.439Z,43.00
2018-05-26T21:07:35.826Z,43.12
2018-05-26T21:10:04.191Z,43.06
2018-05-26T21:12:32.652Z,43.18
2018-05-26T21:15:01.025Z,43.27
2018-05-26T21:17:29.424Z,43.40
2018-05-26T21:19:57.871Z,43.68
2018-05-26T21:22:26.977Z,43.72
2018-05-26T21:24:57.395Z,43.79
2018-05-26T21:27:26.562Z,43.91
2018-05-26T21:29:54.930Z,44.06
2018-05-26T21:32:23.288Z,44.25
2018-05-26T21:34:51.763Z,44.35
2018-05-26T21:37:20.146Z,44.51
2018-05-26T21:39:48.584Z,44.51
2018-05-26T21:42:17.689Z,44.49
2018-05-26T21:44:46.832Z,44.53
2018-05-26T21:47:15.329Z,44.55
2018-05-26T21:49:43.760Z,44.62
2018-05-26T21:52:12.104Z,44.61
2018-05-26T21:54:40.488Z,44.75
2018-05-26T21:57:09.646Z,44.90
2018-05-26T21:59:37.999Z,44.91
2018-05-26T22:02:06.354Z,44.99
2018-05-26T22:04:35.513Z,45.13
2018-05-26T22:07:03.960Z,45.38
2018-05-26T22:09:32.338Z,45.49
2018-05-26T22:12:00.706Z,45.38
2018-05-26T22:14:29.085Z,45.40
2018-05-26T22:16:57.428Z,45.42
2018-05-26T22:19:26.638Z,45.96
2018-05-26T22:21:55.862Z,46.49
2018-05-26T22:24:24.305Z,46.58
2018-05-26T22:26:53.512Z,46.64
2018-05-26T22:29:22.652Z,46.44
2018-05-26T22:31:51.040Z,46.52
2018-05-26T22:34:19.499Z,46.47
2018-05-26T22:36:47.848Z,46.57
2018-05-26T22:39:16.995Z,46.89
2018-05-26T22:41:45.387Z,46.94
2018-05-26T22:44:13.789Z,47.06
2018-05-26T22:46:42.913Z,47.24
2018-05-26T22:49:11.252Z,47.22
2018-05-26T22:51:39.675Z,47.40
2018-05-26T22:54:08.043Z,47.46
2018-05-26T22:56:36.426Z,47.77
2018-05-26T22:59:04.797Z,47.93
2018-05-26T23:01:33.900Z,48.18
2018-05-26T23:04:02.292Z,48.26
2018-05-26T23:06:30.642Z,48.48
2018-05-26T23:08:59.868Z,48.59
2018-05-26T23:11:28.259Z,48.73
2018-05-26T23:13:56.717Z,48.94
2018-05-26T23:16:25.077Z,49.08
2018-05-26T23:18:54.216Z,48.97
2018-05-26T23:21:22.605Z,49.17
2018-05-26T23:23:51.067Z,49.38
2018-05-26T23:26:19.461Z,49.53
2018-05-26T23:28:47.835Z,49.79
2018-05-26T23:31:16.302Z,49.82
2018-05-26T23:33:44.777Z,50.14
2018-05-26T23:36:13.258Z,50.23
2018-05-26T23:38:41.737Z,50.29
2018-05-26T23:41:10.096Z,50.44
2018-05-26T23:43:39.224Z,50.55
2018-05-26T23:46:07.636Z,50.81
2018-05-26T23:48:36.063Z,51.22
2018-05-26T23:51:05.369Z,51.22
2018-05-26T23:53:33.724Z,51.69
2018-05-26T23:56:02.862Z,51.71
2018-05-26T23:58:31.220Z,51.87
